Oscar Osorio

Olheiro-Chefe - Zulia
14 Out 2027
Quinta-feira
Processo

Personalidade

Adaptabilidade (19) Ambição (14) Controvérsia (8) Lealdade (11) Pressão (14) Profissionalismo (6) Espírito Esportivo (1) Temperamento (2)

Perfil

Estilo de Treinamento Democrático
Licença Continental B
Determinação 9
Gestão de Pessoas 8
Motivação 7
Disciplina 6
Satisfação no Trabalho
100%
Fadiga
0%
Função Olheiro-Chefe
Salário 46.6K p/s
Contrato 14.03.2028

Desempenho

Comportamento Bom
Eficácia do Treinamento
24%
Desenvolvimento do Jogador
20%
Prevenção de Lesões
25%
Implementação Tática
25%

Eventos Recentes

Participou de uma reunião de recrutamento 14d atrás
Participou de uma reunião de recrutamento 21d atrás
Participou de uma reunião de recrutamento 28d atrás
Participou de uma reunião de recrutamento 35d atrás
Participou de uma reunião de recrutamento 42d atrás
Participou de uma reunião de recrutamento 49d atrás
Aniversário 49d atrás
Participou de uma reunião de recrutamento 56d atrás

Monitorando agora

105
Jogador Clube Status Habilidade Confiança Observado Última observação Último voto
Julien Lamy Lokomotiv Plovdiv Ativo 99 / 103 40% 1 29.11.2026 -
Martin Sekulić Ural Ativo 102 / 99 40% 1 29.11.2026 -
Robert Murić Floriana Ativo 118 / 108 40% 2 28.11.2026 -
Marcos Cuenca Zaragoza Ativo 110 / 119 40% 4 28.11.2026 -
Matías Sosa Arsenal Ativo 112 / 116 40% 1 28.11.2026 -
Cristhian Medina Dinamo Brest Ativo 101 / 99 40% 6 27.11.2026 -
Alexei Dominguez Pachuca Ativo 103 / 109 40% 4 27.11.2026 -
Carlos Torres Orenburg Ativo 90 / 88 40% 3 27.11.2026 -
Lucio Castillo Colegiales Ativo 104 / 107 40% 2 25.11.2026 -
Kamran Aliev SKA Khabarovsk Ativo 99 / 93 40% 1 25.11.2026 -
Manuel López Defensores Unidos Ativo 99 / 104 40% 1 25.11.2026 -
Abdoul Kialy Koné Ceuta Ativo 102 / 98 40% 1 25.11.2026 -
Diamanka Senghor Mosta Ativo 88 / 86 40% 1 24.11.2026 -
David Barrero Nizhniy Novgorod Ativo 103 / 87 40% 3 23.11.2026 -
Breel Embolo Atlanta United FC Ativo 144 / 141 40% 4 22.11.2026 -
Bojan Radulović Huddersfield Town Ativo 126 / 117 40% 3 21.11.2026 -
Fabricio Oviedo Rosario Central Ativo 115 / 115 40% 2 21.11.2026 -
Klejdi Daci Teuta Durrës Ativo 96 / 104 40% 1 21.11.2026 -
Sam Nombe Milton Keynes Dons Ativo 109 / 112 40% 4 18.11.2026 -
Edarlyn Reyes Arsenal Tula Ativo 105 / 104 40% 1 18.11.2026 -
Lewis McCann Fleetwood Town Ativo 87 / 110 40% 3 14.11.2026 -
Ildi Gruda Egnatia Rrogozhinë Ativo 111 / 106 40% 1 14.11.2026 -
Slobodan Tedić Akron Ativo 100 / 117 40% 1 14.11.2026 -
Ilja Gruznov Khimik Ativo 81 / 78 40% 1 14.11.2026 -
Carlos Zepeda Strogino Ativo 87 / 84 40% 1 11.11.2026 -
Marcos Camarda Santiago Wanderers Ativo 98 / 102 40% 6 09.11.2026 -
Lee Bonis Chesterfield Ativo 96 / 89 40% 1 07.11.2026 -
Facundo Pons San Martín Ativo 115 / 119 40% 1 07.11.2026 -
Marcus Browne AFC Wimbledon Ativo 109 / 102 40% 2 06.11.2026 -
Yeangel Montero Naxxar Lions Ativo 106 / 105 40% 1 06.11.2026 -
Fabricio Rojas Gimnasia y Tiro Ativo 118 / 118 40% 2 05.11.2026 -
Kenan Dervišagić Floriana Ativo 88 / 91 40% 1 05.11.2026 -
Axel Pérez NK Domzale Ativo 100 / 107 40% 5 03.11.2026 -
Tio Cipot NK Maribor Ativo 129 / 117 40% 1 02.11.2026 -
Vladislav Sarveli Nizhniy Novgorod Ativo 118 / 106 40% 1 02.11.2026 -
Nahuel Cáceres Dukla Prague Ativo 112 / 88 40% 1 01.11.2026 -
Tenton Yenne Baltika Ativo 115 / 95 40% 1 01.11.2026 -
Stephen Humphrys Bradford City Ativo 120 / 119 40% 4 31.10.2026 -
Diego Valencia Universidad Catolica Ativo 103 / 110 40% 6 31.10.2026 -
Agustín Fernández NK Zavrc Ativo 76 / 86 40% 1 31.10.2026 -
Gaspar Duarte Rosario Central Ativo 115 / 120 40% 4 30.10.2026 -
Jaze Kabia Grimsby Town Ativo 81 / 101 40% 2 30.10.2026 -
Luka Kurtovic NK Domzale Ativo 131 / 122 40% 4 26.10.2026 -
Pedro Lucas Olimpija Ljubljana Ativo 112 / 114 40% 1 26.10.2026 -
Franklin Sasere Birkirkara Ativo 88 / 92 40% 1 26.10.2026 -
Tomás Romero Unión de Santa Fe Ativo 97 / 96 40% 1 25.10.2026 -
Ángel Stringa Deportivo Riestra Ativo 107 / 95 40% 3 24.10.2026 -
Hakeeb Adelakun Doncaster Rovers Ativo 99 / 108 40% 1 21.10.2026 -
Bruno Morales Cerro Ativo 83 / 99 40% 1 21.10.2026 -
Matty Stevens AFC Wimbledon Ativo 91 / 96 40% 1 20.10.2026 -
Alassana Jatta Notts County Ativo 109 / 100 40% 2 17.10.2026 -
Ekain Orobengoa Real Sociedad Ativo 92 / 115 40% 1 17.10.2026 -
Heung-Min Son Los Angeles Football Club Ativo 147 / 148 40% 1 17.10.2026 -
Maximiliano Arias Defensores Ativo 84 / 88 40% 1 15.10.2026 -
Job Ochieng Real Sociedad Ativo 103 / 97 40% 1 15.10.2026 -
Genaro Rossi San Martín SJ Ativo 107 / 110 40% 2 14.10.2026 -
Ignacio Sabatini Gimnasia y Esgrima Ativo 111 / 110 40% 2 14.10.2026 -
Anderson Gutiérrez Chelyabinsk Ativo 83 / 79 40% 1 14.10.2026 -
Sergio Riffo NK Zavrc Ativo 100 / 102 40% 2 09.10.2026 -
Louis Appéré Cambridge United Ativo 110 / 99 40% 2 09.10.2026 -
Žiga Repas NK Maribor Ativo 103 / 121 40% 1 08.10.2026 -
Carlos Ascues HJK Ativo 118 / 115 40% 1 08.10.2026 -
Alexandr Yushin Torpedo Moscow Ativo 120 / 115 40% 1 06.10.2026 -
Jesús Amarilla Naftan Ativo 82 / 81 40% 1 04.10.2026 -
Manprit Sarkaria Austria Wien Ativo 105 / 126 40% 1 02.10.2026 -
Gabriel Jesus Barcelona Ativo 145 / 156 40% 6 27.09.2026 -
Ramiro Ruiz Rodríguez Atlético Tucumán Ativo 118 / 115 40% 3 27.09.2026 -
Nahuel Roldán Deportivo La Coruña Ativo 104 / 90 40% 3 26.09.2026 -
Jonathan Cañete Portuguesa Ativo 112 / 103 40% 2 24.09.2026 -
Thiago Perugini San Lorenzo Ativo 90 / 103 40% 1 23.09.2026 -
Tobías Ganduglia Independiente Rivadavia Ativo 87 / 103 40% 1 22.09.2026 -
Juan Manuel Mazzolo Maipú Ativo 76 / 83 40% 2 18.09.2026 -
Thomas Oliveri Defensa y Justicia Ativo 98 / 92 40% 1 16.09.2026 -
Gonzalo Tapia Palestino Ativo 104 / 103 40% 2 14.09.2026 -
Bruno Hernández Cerro Largo Ativo 95 / 95 40% 1 14.09.2026 -
Ricardo Solbes Unión de Santa Fe Ativo 90 / 98 40% 1 14.09.2026 -
Joaquín Rivero Instituto Ativo 96 / 89 40% 3 12.09.2026 -
Diego Méndez Tacuarembo Ativo 92 / 93 40% 1 12.09.2026 -
Francisco Galván Deportivo Municipal Ativo 102 / 109 40% 2 11.09.2026 -
Maximo Ingravidi Colón Ativo 103 / 104 40% 2 07.09.2026 -
Thiago Ponce Rosario Central Ativo 98 / 105 40% 1 06.09.2026 -
Cristian Núñez Huracán Ativo 121 / 119 40% 1 02.09.2026 -
Agustín Páez Maipú Ativo 99 / 104 40% 2 31.08.2026 -
Víctor Machado Independiente Rivadavia Ativo 87 / 92 40% 1 31.08.2026 -
Lucas Acosta 12 de Octubre Ativo 76 / 91 40% 1 29.08.2026 -
Mateo Falcione Estudiantes Ativo 74 / 84 40% 1 29.08.2026 -
Enzo Figueredo Boca Juniors Ativo 90 / 88 40% 1 28.08.2026 -
Salvador Martínez Ferro Carril Oeste Ativo 75 / 90 40% 1 28.08.2026 -
José Rivas Gamboa Trujillanos Ativo 96 / 91 40% 2 25.08.2026 -
Ian De Filippi San Lorenzo Ativo 83 / 81 40% 1 22.08.2026 -
Gaspar Padilla Gimnasia y Esgrima Ativo 80 / 86 40% 1 21.08.2026 -
Tiago Taobas Central Norte Ativo 80 / 86 40% 1 16.08.2026 -
Ignacio Vázquez Lanús Ativo 79 / 88 40% 1 15.08.2026 -
Tomás Salteño Rosario Central Ativo 94 / 95 40% 1 15.08.2026 -
Adalberto Peñaranda Deportivo Tachira Ativo 110 / 109 40% 1 14.08.2026 -
Vito Esmay Atlanta Ativo 75 / 93 40% 1 13.08.2026 -
Yeison Castillo Real Santander Ativo 82 / 93 40% 1 10.08.2026 -
Diego Fuentes Etoiles du Mande Ativo 90 / 99 40% 1 08.08.2026 -
David Agudelo Depor Ativo 88 / 104 40% 1 08.08.2026 -
Elías Ovelar Dinamo Brest Ativo 80 / 91 40% 1 08.08.2026 -
Richard Celis Zamora Ativo 111 / 114 40% 1 08.08.2026 -
Alexis Dulón Huracán Ativo 101 / 101 40% 1 07.08.2026 -
Iker Córdoba Valencia Ativo 98 / 99 40% 1 05.08.2026 -
Jeyson Rojas Colo-Colo Ativo 97 / 106 40% 1 05.08.2026 -
Martín Pino Godoy Cruz Ativo 118 / 108 40% 1 02.08.2026 -